createdAt,value
2018-03-23T00:00:44.428Z,0
2018-03-23T00:01:54.225Z,0
2018-03-23T00:03:04.025Z,0
2018-03-23T00:04:13.823Z,0
2018-03-23T00:05:23.887Z,0
2018-03-23T00:06:33.757Z,0
2018-03-23T00:07:43.569Z,0
2018-03-23T00:08:53.646Z,0
2018-03-23T00:10:03.185Z,0
2018-03-23T00:11:13.234Z,0
2018-03-23T00:12:22.776Z,0
2018-03-23T00:13:32.607Z,0
2018-03-23T00:14:42.672Z,0
2018-03-23T00:15:52.731Z,0
2018-03-23T00:17:02.270Z,0
2018-03-23T00:18:12.067Z,0
2018-03-23T00:19:22.182Z,0
2018-03-23T00:20:31.702Z,0
2018-03-23T00:21:41.757Z,0
2018-03-23T00:22:51.284Z,0
2018-03-23T00:24:01.454Z,0
2018-03-23T00:25:11.265Z,0
2018-03-23T00:26:21.076Z,0
2018-03-23T00:27:31.134Z,0
2018-03-23T00:28:41.216Z,0
2018-03-23T00:29:51.053Z,0
2018-03-23T00:31:00.591Z,0
2018-03-23T00:32:10.636Z,0
2018-03-23T00:33:20.698Z,0
2018-03-23T00:34:30.764Z,0
2018-03-23T00:35:40.877Z,0
2018-03-23T00:36:50.667Z,0
2018-03-23T00:38:00.460Z,0
2018-03-23T00:39:10.272Z,0
2018-03-23T00:40:20.068Z,0
2018-03-23T00:41:29.865Z,0
2018-03-23T00:42:39.652Z,0
2018-03-23T00:43:49.456Z,0
2018-03-23T00:44:59.264Z,0
2018-03-23T00:46:09.347Z,0
2018-03-23T00:47:19.253Z,0
2018-03-23T00:48:29.051Z,0
2018-03-23T00:49:38.850Z,0
2018-03-23T00:50:48.677Z,0
2018-03-23T00:51:58.734Z,0
2018-03-23T00:53:08.794Z,0
2018-03-23T00:54:18.845Z,0
2018-03-23T00:55:28.908Z,0
2018-03-23T00:56:38.704Z,0
2018-03-23T00:57:48.499Z,0
2018-03-23T00:58:58.311Z,0
2018-03-23T01:00:08.390Z,0
2018-03-23T01:01:17.901Z,0
2018-03-23T01:02:27.967Z,0
2018-03-23T01:03:37.503Z,0
2018-03-23T01:04:47.360Z,0
2018-03-23T01:05:57.139Z,0
2018-03-23T01:07:06.678Z,0
2018-03-23T01:08:16.478Z,0
2018-03-23T01:09:26.045Z,0
2018-03-23T01:10:35.355Z,0
2018-03-23T01:11:45.159Z,0
2018-03-23T01:12:55.237Z,0
2018-03-23T01:14:05.030Z,0
2018-03-23T01:15:15.091Z,0
2018-03-23T01:16:24.904Z,0
2018-03-23T01:17:34.945Z,0
2018-03-23T01:18:45.011Z,0
2018-03-23T01:19:55.082Z,0
2018-03-23T01:21:04.868Z,0
2018-03-23T01:22:14.403Z,0
2018-03-23T01:23:24.467Z,0
2018-03-23T01:24:34.539Z,0
2018-03-23T01:25:44.074Z,0
2018-03-23T01:26:54.136Z,0
2018-03-23T01:28:04.236Z,0
2018-03-23T01:29:13.517Z,0
2018-03-23T01:30:23.296Z,0
2018-03-23T01:31:32.820Z,0
2018-03-23T01:32:42.098Z,0
2018-03-23T01:33:52.148Z,0
2018-03-23T01:35:01.671Z,0
2018-03-23T01:36:11.728Z,0
2018-03-23T01:37:21.534Z,0
2018-03-23T01:38:31.316Z,0
2018-03-23T01:39:41.103Z,0
2018-03-23T01:40:51.166Z,0
2018-03-23T01:42:01.226Z,0
2018-03-23T01:43:10.755Z,0
2018-03-23T01:44:20.560Z,0
2018-03-23T01:45:30.372Z,0
2018-03-23T01:46:40.444Z,0
2018-03-23T01:47:50.251Z,0
2018-03-23T01:48:59.799Z,0
2018-03-23T01:50:09.594Z,0
2018-03-23T01:51:19.709Z,0
2018-03-23T01:52:29.762Z,0
2018-03-23T01:53:39.836Z,0
2018-03-23T01:54:49.894Z,0
2018-03-23T01:55:58.898Z,0
2018-03-23T01:57:09.015Z,0
2018-03-23T01:58:18.545Z,0
2018-03-23T01:59:28.340Z,0
2018-03-23T02:00:38.400Z,0
2018-03-23T02:01:48.491Z,0
2018-03-23T02:02:58.285Z,0
2018-03-23T02:04:08.359Z,0
2018-03-23T02:05:18.163Z,0
2018-03-23T02:06:27.702Z,0
2018-03-23T02:07:37.246Z,0
2018-03-23T02:08:47.356Z,0
2018-03-23T02:09:57.140Z,0
2018-03-23T02:11:06.675Z,0
2018-03-23T02:12:16.477Z,0
2018-03-23T02:13:26.004Z,0
2018-03-23T02:14:36.063Z,0
2018-03-23T02:15:46.119Z,0
2018-03-23T02:16:55.652Z,0
2018-03-23T02:18:05.691Z,0
2018-03-23T02:19:15.488Z,0
2018-03-23T02:20:25.338Z,0
2018-03-23T02:21:35.288Z,0
2018-03-23T02:22:45.357Z,0
2018-03-23T02:23:54.880Z,0
2018-03-23T02:25:04.943Z,0
2018-03-23T02:26:15.028Z,0
2018-03-23T02:27:25.081Z,0
2018-03-23T02:28:35.152Z,0
2018-03-23T02:29:44.681Z,0
2018-03-23T02:30:54.510Z,0
2018-03-23T02:32:04.326Z,0
2018-03-23T02:33:14.373Z,0
2018-03-23T02:34:24.452Z,0
2018-03-23T02:35:34.577Z,0
2018-03-23T02:36:44.105Z,0
2018-03-23T02:37:54.170Z,0
2018-03-23T02:39:04.257Z,0
2018-03-23T02:40:13.798Z,0
2018-03-23T02:41:23.383Z,0
2018-03-23T02:42:33.468Z,0
2018-03-23T02:43:43.601Z,0
2018-03-23T02:44:53.395Z,0
2018-03-23T02:46:03.469Z,0
2018-03-23T02:47:13.300Z,0
2018-03-23T02:48:23.123Z,0
2018-03-23T02:49:33.184Z,0
2018-03-23T02:50:42.994Z,0
2018-03-23T02:51:53.059Z,0
2018-03-23T02:53:03.166Z,0
2018-03-23T02:54:12.971Z,0
2018-03-23T02:55:22.511Z,0
2018-03-23T02:56:31.527Z,0
2018-03-23T02:57:41.609Z,0
2018-03-23T02:58:51.425Z,0
2018-03-23T03:00:01.514Z,0
2018-03-23T03:01:11.362Z,0
2018-03-23T03:02:21.416Z,0
2018-03-23T03:03:31.478Z,0
2018-03-23T03:04:41.540Z,0
2018-03-23T03:05:51.344Z,0
2018-03-23T03:07:01.137Z,0
2018-03-23T03:38:35.729Z,0
2018-03-23T03:39:45.770Z,0
2018-03-23T03:40:55.823Z,0
2018-03-23T03:42:05.618Z,0
2018-03-23T03:43:15.450Z,0
2018-03-23T03:44:25.320Z,0
2018-03-23T03:45:35.389Z,0
2018-03-23T03:46:45.430Z,0
2018-03-23T03:47:55.496Z,0
2018-03-23T03:49:05.546Z,0
2018-03-23T03:50:15.604Z,0
2018-03-23T03:51:25.391Z,0
2018-03-23T03:52:35.434Z,0
2018-03-23T03:53:44.991Z,0
2018-03-23T03:54:55.056Z,0
2018-03-23T03:56:04.889Z,0
2018-03-23T03:57:14.936Z,0
2018-03-23T03:58:25.000Z,0
2018-03-23T03:59:35.098Z,0
2018-03-23T04:00:45.180Z,0
2018-03-23T04:01:55.295Z,0
2018-03-23T04:03:05.364Z,0
2018-03-23T04:04:15.426Z,0
2018-03-23T04:05:25.497Z,0
2018-03-23T04:06:35.285Z,0
2018-03-23T04:07:45.357Z,0
2018-03-23T04:08:55.152Z,0
2018-03-23T04:10:05.238Z,0
2018-03-23T04:11:15.296Z,0
2018-03-23T04:12:25.342Z,0
2018-03-23T04:13:35.507Z,0
2018-03-23T04:14:45.311Z,0
2018-03-23T04:15:55.393Z,0
2018-03-23T04:17:05.481Z,0
2018-03-23T04:18:15.288Z,0
2018-03-23T04:19:25.363Z,0
2018-03-23T04:20:35.155Z,0
2018-03-23T04:21:45.206Z,0
2018-03-23T04:22:55.271Z,0
2018-03-23T04:24:04.801Z,0
2018-03-23T04:25:14.392Z,0
2018-03-23T04:26:24.184Z,0
2018-03-23T04:27:34.252Z,0
2018-03-23T04:28:44.055Z,0
2018-03-23T04:29:53.599Z,0
2018-03-23T04:31:03.712Z,0
2018-03-23T04:32:13.507Z,0
2018-03-23T04:33:23.581Z,0
2018-03-23T04:34:33.653Z,0
2018-03-23T04:35:43.725Z,0
2018-03-23T04:36:53.837Z,0
2018-03-23T04:38:03.627Z,0
2018-03-23T04:39:13.685Z,0
2018-03-23T04:40:23.749Z,0
2018-03-23T04:41:33.562Z,0
2018-03-23T04:42:43.610Z,0
2018-03-23T04:43:53.665Z,0
2018-03-23T04:45:03.452Z,0
2018-03-23T04:46:13.503Z,0
2018-03-23T04:47:23.300Z,0
2018-03-23T04:48:33.117Z,0
2018-03-23T04:49:42.907Z,0
2018-03-23T04:50:52.956Z,0
2018-03-23T04:52:03.018Z,0
2018-03-23T04:53:13.063Z,0
2018-03-23T04:54:22.926Z,0
2018-03-23T04:55:32.722Z,0
2018-03-23T04:56:42.829Z,0
2018-03-23T04:57:52.644Z,0
2018-03-23T04:59:02.434Z,0
2018-03-23T05:00:11.963Z,0
2018-03-23T05:01:21.511Z,0
2018-03-23T05:02:31.590Z,0
2018-03-23T05:03:41.675Z,0
2018-03-23T05:04:51.209Z,0
2018-03-23T05:06:01.335Z,0
2018-03-23T05:07:11.392Z,0
2018-03-23T05:08:21.180Z,0
2018-03-23T05:09:30.981Z,0
2018-03-23T05:10:40.772Z,0
2018-03-23T05:11:50.840Z,0
2018-03-23T05:13:00.647Z,0
2018-03-23T05:14:09.940Z,0
2018-03-23T05:15:19.752Z,0
2018-03-23T05:16:30.051Z,0
2018-03-23T05:17:39.576Z,0
2018-03-23T05:18:49.638Z,5
2018-03-23T05:19:59.440Z,5
2018-03-23T05:21:09.237Z,5
2018-03-23T05:22:19.039Z,5
2018-03-23T05:23:28.831Z,5
2018-03-23T05:24:38.872Z,5
2018-03-23T05:25:48.669Z,5
2018-03-23T05:26:58.468Z,5
2018-03-23T05:28:08.524Z,10
2018-03-23T05:29:18.584Z,10
2018-03-23T05:30:28.393Z,10
2018-03-23T05:31:38.521Z,10
2018-03-23T05:32:48.582Z,10
2018-03-23T05:33:58.636Z,10
2018-03-23T05:35:08.744Z,10
2018-03-23T05:36:18.814Z,10
2018-03-23T05:37:28.621Z,15
2018-03-23T05:38:38.166Z,15
2018-03-23T05:39:47.972Z,15
2018-03-23T05:40:57.562Z,15
2018-03-23T05:42:07.355Z,15
2018-03-23T05:43:17.144Z,15
2018-03-23T05:44:26.950Z,15
2018-03-23T05:45:36.207Z,15
2018-03-23T05:46:46.315Z,15
2018-03-23T05:47:56.384Z,15
2018-03-23T05:49:06.184Z,15
2018-03-23T05:50:16.251Z,15
2018-03-23T05:51:26.311Z,15
2018-03-23T05:52:35.850Z,15
2018-03-23T05:53:45.389Z,15
2018-03-23T05:54:55.438Z,15
2018-03-23T05:56:05.235Z,15
2018-03-23T05:57:15.030Z,15
2018-03-23T05:58:24.822Z,15
2018-03-23T05:59:34.876Z,15
2018-03-23T06:00:44.932Z,15
2018-03-23T06:01:55.002Z,15
2018-03-23T06:03:04.800Z,15
2018-03-23T06:04:14.336Z,15
2018-03-23T06:05:24.374Z,15
2018-03-23T06:06:34.211Z,15
2018-03-23T06:07:43.825Z,15
2018-03-23T06:08:53.884Z,15
2018-03-23T06:10:04.002Z,15
2018-03-23T06:11:13.539Z,20
2018-03-23T06:12:23.590Z,20
2018-03-23T06:13:33.395Z,20
2018-03-23T06:14:43.458Z,20
2018-03-23T06:15:53.264Z,20
2018-03-23T06:17:03.335Z,20
2018-03-23T06:18:13.147Z,20
2018-03-23T06:19:23.259Z,20
2018-03-23T06:20:32.549Z,20
2018-03-23T06:21:42.357Z,25
2018-03-23T06:22:52.725Z,25
2018-03-23T06:24:02.786Z,25
2018-03-23T06:25:12.842Z,25
2018-03-23T06:26:22.645Z,25
2018-03-23T06:27:32.492Z,25
2018-03-23T06:28:42.545Z,25
2018-03-23T06:29:52.597Z,25
2018-03-23T06:31:02.387Z,30
2018-03-23T06:32:12.203Z,30
2018-03-23T06:33:22.056Z,30
2018-03-23T06:34:31.586Z,30
2018-03-23T06:35:41.640Z,30
2018-03-23T06:36:51.427Z,35
2018-03-23T06:38:01.483Z,35
2018-03-23T06:39:11.295Z,35
2018-03-23T06:40:20.822Z,35
2018-03-23T06:41:31.076Z,35
2018-03-23T06:42:40.629Z,30
2018-03-23T06:43:50.442Z,30
2018-03-23T06:45:00.238Z,30
2018-03-23T06:46:10.330Z,30
2018-03-23T06:47:19.917Z,30
2018-03-23T06:48:29.464Z,30
2018-03-23T06:49:39.584Z,30
2018-03-23T06:50:49.688Z,35
2018-03-23T06:51:59.489Z,35
2018-03-23T06:53:09.552Z,40
2018-03-23T06:54:19.081Z,35
2018-03-23T06:55:29.135Z,40
2018-03-23T06:56:39.202Z,40
2018-03-23T06:57:48.997Z,40
2018-03-23T06:58:58.515Z,35
2018-03-23T07:00:08.570Z,40
2018-03-23T07:01:18.358Z,40
2018-03-23T07:02:28.422Z,40
2018-03-23T07:03:37.692Z,40
2018-03-23T07:04:47.750Z,40
2018-03-23T07:05:57.571Z,40
2018-03-23T07:07:07.375Z,45
2018-03-23T07:08:17.214Z,45
2018-03-23T07:09:26.996Z,50
2018-03-23T07:10:36.802Z,50
2018-03-23T07:11:46.839Z,50
2018-03-23T07:12:56.637Z,50
2018-03-23T07:14:06.696Z,50
2018-03-23T07:15:16.490Z,50
2018-03-23T07:16:26.135Z,50
2018-03-23T07:17:35.939Z,55
2018-03-23T07:18:46.020Z,55
2018-03-23T07:19:56.080Z,55
2018-03-23T07:21:06.157Z,55
2018-03-23T07:22:16.220Z,55
2018-03-23T07:23:26.024Z,60
2018-03-23T07:24:36.116Z,60
2018-03-23T07:25:45.930Z,60
2018-03-23T07:26:55.480Z,60
2018-03-23T07:28:05.546Z,60
2018-03-23T07:29:15.090Z,60
2018-03-23T07:30:24.869Z,60
2018-03-23T07:31:34.661Z,60
2018-03-23T07:32:44.460Z,60
2018-03-23T07:33:54.522Z,60
2018-03-23T07:35:04.583Z,60
2018-03-23T07:36:14.374Z,60
2018-03-23T07:37:23.916Z,65
2018-03-23T07:38:33.963Z,60
2018-03-23T07:39:43.263Z,60
2018-03-23T07:40:53.074Z,60
2018-03-23T07:42:02.614Z,60
2018-03-23T07:43:11.872Z,60
2018-03-23T07:44:21.414Z,60
2018-03-23T07:45:31.485Z,60
2018-03-23T07:46:41.550Z,60
2018-03-23T07:47:51.124Z,60
2018-03-23T07:49:01.185Z,60
2018-03-23T07:50:10.985Z,60
2018-03-23T07:51:21.061Z,55
2018-03-23T07:52:30.861Z,60
2018-03-23T07:53:41.008Z,60
2018-03-23T07:54:51.126Z,65
2018-03-23T07:56:00.651Z,65
2018-03-23T07:57:10.737Z,70
2018-03-23T07:58:20.803Z,70
2018-03-23T07:59:30.335Z,70
2018-03-23T08:00:40.154Z,70
2018-03-23T08:01:50.226Z,70
2018-03-23T08:03:00.315Z,70
2018-03-23T08:04:10.393Z,70
2018-03-23T08:05:20.479Z,70
2018-03-23T08:06:30.552Z,75
2018-03-23T08:07:40.608Z,75
2018-03-23T08:08:50.656Z,80
2018-03-23T08:10:00.721Z,75
2018-03-23T08:11:10.801Z,80
2018-03-23T08:12:20.865Z,80
2018-03-23T08:13:30.982Z,75
2018-03-23T08:14:40.776Z,70
2018-03-23T08:15:50.902Z,70
2018-03-23T08:17:00.946Z,70
2018-03-23T08:18:10.738Z,75
2018-03-23T08:19:20.810Z,75
2018-03-23T08:20:30.883Z,80
2018-03-23T08:21:40.683Z,85
2018-03-23T08:22:50.538Z,95
2018-03-23T08:24:00.607Z,95
2018-03-23T08:25:10.666Z,95
2018-03-23T08:26:20.736Z,105
2018-03-23T08:27:30.520Z,105
2018-03-23T08:28:40.581Z,105
2018-03-23T08:29:50.695Z,105
2018-03-23T08:31:00.789Z,105
2018-03-23T08:32:10.850Z,105
2018-03-23T08:33:20.912Z,105
2018-03-23T08:34:30.983Z,110
2018-03-23T08:35:40.534Z,105
2018-03-23T08:36:50.604Z,110
2018-03-23T08:38:00.408Z,115
2018-03-23T08:39:10.498Z,115
2018-03-23T08:40:20.563Z,120
2018-03-23T08:41:30.631Z,115
2018-03-23T08:42:40.686Z,115
2018-03-23T08:43:50.224Z,115
2018-03-23T08:45:00.365Z,115
2018-03-23T08:46:10.154Z,115
2018-03-23T08:47:19.709Z,120
2018-03-23T08:48:29.755Z,120
2018-03-23T08:49:39.319Z,125
2018-03-23T08:50:49.432Z,125
2018-03-23T08:51:59.501Z,130
2018-03-23T08:53:09.040Z,135
2018-03-23T08:54:18.876Z,135
2018-03-23T08:55:28.667Z,135
2018-03-23T08:56:38.712Z,135
2018-03-23T08:57:48.770Z,140
2018-03-23T08:58:58.856Z,155
2018-03-23T09:00:08.678Z,150
2018-03-23T09:01:18.484Z,150
2018-03-23T09:02:28.289Z,150
2018-03-23T09:03:38.359Z,150
2018-03-23T09:04:48.004Z,150
2018-03-23T09:05:58.076Z,150
2018-03-23T09:07:08.172Z,150
2018-03-23T09:08:17.738Z,150
2018-03-23T09:09:27.586Z,155
2018-03-23T09:10:37.135Z,160
2018-03-23T09:11:47.208Z,165
2018-03-23T09:12:57.007Z,170
2018-03-23T09:14:06.820Z,180
2018-03-23T09:15:16.634Z,185
2018-03-23T09:16:26.176Z,185
2018-03-23T09:17:35.719Z,185
2018-03-23T09:18:45.813Z,195
2018-03-23T09:19:55.884Z,205
2018-03-23T09:21:05.737Z,215
2018-03-23T09:22:15.815Z,220
2018-03-23T09:23:25.898Z,225
2018-03-23T09:24:35.970Z,230
2018-03-23T09:25:45.519Z,230
2018-03-23T09:26:55.332Z,220
2018-03-23T09:28:04.608Z,225
2018-03-23T09:29:14.691Z,220
2018-03-23T09:30:24.764Z,220
2018-03-23T09:31:34.587Z,220
2018-03-23T09:32:44.395Z,225
2018-03-23T09:33:54.470Z,220
2018-03-23T09:35:04.273Z,220
2018-03-23T09:36:13.797Z,220
2018-03-23T09:37:23.468Z,220
2018-03-23T09:38:33.260Z,220
2018-03-23T09:39:43.119Z,225
2018-03-23T09:40:52.650Z,225
2018-03-23T09:42:02.703Z,230
2018-03-23T09:43:12.527Z,250
2018-03-23T09:44:22.335Z,255
2018-03-23T09:45:32.477Z,260
2018-03-23T09:46:42.270Z,275
2018-03-23T09:47:52.355Z,255
2018-03-23T09:49:02.474Z,250
2018-03-23T09:50:12.584Z,245
2018-03-23T09:51:21.639Z,245
2018-03-23T09:52:31.453Z,240
2018-03-23T09:53:40.991Z,240
2018-03-23T09:54:51.069Z,245
2018-03-23T09:56:01.140Z,240
2018-03-23T09:57:11.002Z,245
2018-03-23T09:58:20.874Z,235
2018-03-23T09:59:30.945Z,235
2018-03-23T10:00:40.757Z,235
2018-03-23T10:01:50.820Z,245
2018-03-23T10:03:00.683Z,245
2018-03-23T10:04:11.056Z,260
2018-03-23T10:05:20.620Z,255
2018-03-23T10:06:30.444Z,255
2018-03-23T10:07:39.986Z,265
2018-03-23T10:08:50.137Z,285
2018-03-23T10:09:59.793Z,265
2018-03-23T10:11:09.388Z,255
2018-03-23T10:12:19.542Z,250
2018-03-23T10:13:29.381Z,250
2018-03-23T10:14:39.525Z,245
2018-03-23T10:15:49.338Z,235
2018-03-23T10:16:59.454Z,235
2018-03-23T10:18:09.554Z,235
2018-03-23T10:19:19.382Z,235
2018-03-23T10:20:29.242Z,235
2018-03-23T10:21:39.171Z,240
2018-03-23T10:22:49.021Z,250
2018-03-23T10:23:58.826Z,250
2018-03-23T10:25:08.895Z,250
2018-03-23T10:26:18.754Z,255
2018-03-23T10:27:28.585Z,255
2018-03-23T10:28:38.705Z,255
2018-03-23T10:29:48.830Z,255
2018-03-23T10:30:58.944Z,255
2018-03-23T10:32:09.076Z,255
2018-03-23T10:33:18.894Z,255
2018-03-23T10:34:28.429Z,255
2018-03-23T10:35:38.384Z,260
2018-03-23T10:36:48.472Z,250
2018-03-23T10:37:58.609Z,245
2018-03-23T10:39:08.732Z,240
2018-03-23T10:40:18.573Z,245
2018-03-23T10:41:28.378Z,250
2018-03-23T10:42:38.438Z,255
2018-03-23T10:43:48.510Z,250
2018-03-23T10:44:58.566Z,255
2018-03-23T10:46:08.651Z,260
2018-03-23T10:47:18.698Z,260
2018-03-23T10:48:28.520Z,265
2018-03-23T10:49:37.789Z,265
2018-03-23T10:50:47.355Z,260
2018-03-23T10:51:57.466Z,260
2018-03-23T10:53:07.545Z,260
2018-03-23T10:54:17.669Z,260
2018-03-23T10:55:27.747Z,265
2018-03-23T10:56:37.566Z,265
2018-03-23T10:57:47.642Z,260
2018-03-23T10:58:57.713Z,255
2018-03-23T11:00:07.798Z,245
2018-03-23T11:01:17.910Z,235
2018-03-23T11:02:27.727Z,230
2018-03-23T11:03:37.580Z,230
2018-03-23T11:04:47.404Z,245
2018-03-23T11:05:57.197Z,255
2018-03-23T11:07:06.994Z,250
2018-03-23T11:08:17.077Z,240
2018-03-23T11:09:26.604Z,235
2018-03-23T11:10:36.691Z,230
2018-03-23T11:11:46.477Z,220
2018-03-23T11:12:57.455Z,220
2018-03-23T11:14:07.297Z,220
2018-03-23T11:15:17.068Z,235
2018-03-23T11:16:26.657Z,245
2018-03-23T11:17:36.841Z,240
2018-03-23T11:18:46.997Z,235
2018-03-23T11:19:57.180Z,235
2018-03-23T11:21:07.313Z,245
2018-03-23T11:22:16.938Z,250
2018-03-23T11:23:26.794Z,245
2018-03-23T11:24:37.137Z,235
2018-03-23T11:25:46.992Z,220
2018-03-23T11:26:57.213Z,210
2018-03-23T11:28:06.850Z,210
2018-03-23T11:29:16.525Z,215
2018-03-23T11:30:26.756Z,220
2018-03-23T11:31:37.076Z,225
2018-03-23T11:32:47.296Z,230
2018-03-23T11:33:57.159Z,240
2018-03-23T11:35:06.987Z,245
2018-03-23T11:36:17.151Z,245
2018-03-23T11:37:27.268Z,235
2018-03-23T11:38:37.361Z,225
2018-03-23T11:39:47.685Z,230
2018-03-23T11:40:58.285Z,240
2018-03-23T11:42:08.455Z,245
2018-03-23T11:43:18.665Z,245
2018-03-23T11:44:29.190Z,245
2018-03-23T11:45:39.305Z,245
2018-03-23T11:46:49.432Z,245
2018-03-23T11:47:59.317Z,245
2018-03-23T11:49:09.210Z,250
2018-03-23T11:50:19.343Z,255
2018-03-23T11:51:29.240Z,260
2018-03-23T11:52:39.351Z,260
2018-03-23T11:53:49.510Z,260
2018-03-23T11:54:59.574Z,255
2018-03-23T11:56:09.667Z,260
2018-03-23T11:57:19.517Z,260
2018-03-23T11:58:29.584Z,265
2018-03-23T11:59:39.642Z,260
2018-03-23T12:00:49.474Z,255
2018-03-23T12:01:59.585Z,245
2018-03-23T12:03:09.439Z,250
2018-03-23T12:04:19.511Z,245
2018-03-23T12:05:29.672Z,240
2018-03-23T12:06:39.754Z,240
2018-03-23T12:07:49.568Z,245
2018-03-23T12:08:59.643Z,240
2018-03-23T12:10:09.731Z,225
2018-03-23T12:11:19.846Z,225
2018-03-23T12:12:29.944Z,225
2018-03-23T12:13:40.019Z,230
2018-03-23T12:14:50.096Z,230
2018-03-23T12:15:59.393Z,230
2018-03-23T12:17:09.565Z,235
2018-03-23T12:18:19.643Z,230
2018-03-23T12:19:29.731Z,225
2018-03-23T12:20:39.803Z,220
2018-03-23T12:21:49.893Z,220
2018-03-23T12:22:59.983Z,215
2018-03-23T12:24:10.081Z,215
2018-03-23T12:25:20.157Z,215
2018-03-23T12:26:30.008Z,210
2018-03-23T12:27:39.855Z,205
2018-03-23T12:28:49.746Z,190
2018-03-23T12:29:59.848Z,185
2018-03-23T12:31:09.913Z,185
2018-03-23T12:32:20.047Z,190
2018-03-23T12:33:30.126Z,190
2018-03-23T12:34:40.225Z,195
2018-03-23T12:35:50.305Z,190
2018-03-23T12:37:00.130Z,185
2018-03-23T12:38:10.506Z,185
2018-03-23T12:39:20.577Z,190
2018-03-23T12:40:30.710Z,195
2018-03-23T12:41:40.536Z,195
2018-03-23T12:42:50.617Z,190
2018-03-23T12:44:00.677Z,190
2018-03-23T12:45:10.485Z,175
2018-03-23T12:46:20.590Z,155
2018-03-23T12:47:30.662Z,145
2018-03-23T12:48:40.768Z,145
2018-03-23T12:49:50.868Z,150
2018-03-23T12:51:00.604Z,155
2018-03-23T12:52:10.437Z,155
2018-03-23T12:53:20.512Z,150
2018-03-23T12:54:30.609Z,155
2018-03-23T12:55:40.684Z,160
2018-03-23T12:56:50.756Z,170
2018-03-23T12:58:01.360Z,175
2018-03-23T12:59:11.491Z,175
2018-03-23T13:00:21.611Z,175
2018-03-23T13:01:31.709Z,175
2018-03-23T13:02:41.604Z,175
2018-03-23T13:03:51.760Z,175
2018-03-23T13:05:01.886Z,175
2018-03-23T13:06:11.491Z,180
2018-03-23T13:07:21.584Z,175
2018-03-23T13:08:31.672Z,175
2018-03-23T13:09:41.875Z,170
2018-03-23T13:10:51.713Z,170
2018-03-23T13:12:01.848Z,165
2018-03-23T13:13:11.924Z,160
2018-03-23T13:17:02.223Z,120
2018-03-23T13:18:12.309Z,110
2018-03-23T13:19:22.387Z,90
2018-03-23T13:20:32.475Z,85
2018-03-23T13:21:42.562Z,75
2018-03-23T13:22:53.093Z,70
2018-03-23T13:24:03.161Z,65
2018-03-23T13:25:13.038Z,65
2018-03-23T13:26:22.507Z,65
2018-03-23T13:27:32.393Z,60
2018-03-23T13:28:42.326Z,65
2018-03-23T13:29:52.192Z,65
2018-03-23T13:31:01.493Z,70
2018-03-23T13:32:11.320Z,70
2018-03-23T13:33:21.402Z,70
2018-03-23T13:34:31.539Z,65
2018-03-23T13:35:41.607Z,60
2018-03-23T13:36:51.703Z,60
2018-03-23T13:38:01.793Z,55
2018-03-23T13:39:11.904Z,50
2018-03-23T13:40:21.781Z,45
2018-03-23T13:41:31.601Z,45
2018-03-23T13:42:41.937Z,45
2018-03-23T13:43:52.003Z,45
2018-03-23T13:45:02.079Z,40
2018-03-23T13:46:12.180Z,40
2018-03-23T13:47:22.011Z,35
2018-03-23T13:48:31.814Z,35
2018-03-23T13:49:41.365Z,30
2018-03-23T13:50:51.185Z,30
2018-03-23T13:52:01.043Z,25
2018-03-23T13:53:11.107Z,25
2018-03-23T13:54:21.204Z,25
2018-03-23T13:55:30.506Z,25
2018-03-23T13:56:40.573Z,20
2018-03-23T13:57:50.644Z,20
2018-03-23T13:59:00.730Z,20
2018-03-23T14:00:10.849Z,20
2018-03-23T14:01:20.936Z,20
2018-03-23T14:02:30.836Z,20
2018-03-23T14:03:40.648Z,20
2018-03-23T14:04:50.730Z,20
2018-03-23T14:06:00.532Z,15
2018-03-23T14:07:10.607Z,15
2018-03-23T14:08:20.178Z,15
2018-03-23T14:09:30.087Z,20
2018-03-23T14:10:40.144Z,25
2018-03-23T14:11:50.269Z,25
2018-03-23T14:13:00.334Z,25
2018-03-23T14:14:10.457Z,30
2018-03-23T14:15:20.596Z,30
2018-03-23T14:16:30.692Z,35
2018-03-23T14:17:40.290Z,35
2018-03-23T14:18:50.142Z,40
2018-03-23T14:20:00.225Z,40
2018-03-23T14:21:09.850Z,40
2018-03-23T14:22:19.685Z,40
2018-03-23T14:23:29.655Z,40
2018-03-23T14:24:39.462Z,40
2018-03-23T14:25:49.569Z,40
2018-03-23T14:26:59.382Z,35
2018-03-23T14:28:09.218Z,35
2018-03-23T14:29:19.326Z,35
2018-03-23T14:30:29.143Z,35
2018-03-23T14:31:38.980Z,35
2018-03-23T14:32:49.292Z,40
2018-03-23T14:33:59.501Z,40
2018-03-23T14:35:09.332Z,45
2018-03-23T14:36:19.154Z,45
2018-03-23T14:37:29.243Z,45
2018-03-23T14:38:38.819Z,45
2018-03-23T14:39:48.901Z,45
2018-03-23T14:40:58.954Z,50
2018-03-23T14:42:08.764Z,50
2018-03-23T14:43:18.318Z,50
2018-03-23T14:44:27.918Z,50
2018-03-23T14:45:37.891Z,50
2018-03-23T14:46:48.218Z,50
2018-03-23T14:47:58.041Z,50
2018-03-23T14:49:08.156Z,50
2018-03-23T14:50:17.716Z,50
2018-03-23T14:51:27.894Z,50
2018-03-23T14:52:38.008Z,50
2018-03-23T14:53:47.633Z,50
2018-03-23T14:54:57.478Z,55
2018-03-23T14:56:07.038Z,55
2018-03-23T14:57:16.605Z,55
2018-03-23T14:58:26.479Z,55
2018-03-23T14:59:36.324Z,60
2018-03-23T15:00:46.155Z,60
2018-03-23T15:01:56.266Z,60
2018-03-23T15:03:06.132Z,60
2018-03-23T15:04:16.239Z,60
2018-03-23T15:05:26.438Z,60
2018-03-23T15:06:36.290Z,60
2018-03-23T15:07:46.357Z,60
2018-03-23T15:08:56.183Z,60
2018-03-23T15:10:06.282Z,55
2018-03-23T15:11:16.386Z,55
2018-03-23T15:12:26.462Z,55
2018-03-23T15:13:36.558Z,55
2018-03-23T15:14:46.705Z,55
2018-03-23T15:15:56.766Z,50
2018-03-23T15:17:06.580Z,50
2018-03-23T15:18:16.410Z,50
2018-03-23T15:19:26.488Z,50
2018-03-23T15:20:36.566Z,50
2018-03-23T15:21:46.839Z,50
2018-03-23T15:22:56.935Z,45
2018-03-23T15:24:07.002Z,45
2018-03-23T15:25:16.831Z,45
2018-03-23T15:26:26.692Z,45
2018-03-23T15:27:36.504Z,45
2018-03-23T15:28:46.591Z,40
2018-03-23T15:29:56.670Z,40
2018-03-23T15:31:06.469Z,40
2018-03-23T15:32:16.341Z,40
2018-03-23T15:33:25.895Z,40
2018-03-23T15:34:35.698Z,40
2018-03-23T15:35:45.851Z,40
2018-03-23T15:36:55.665Z,40
2018-03-23T15:38:05.271Z,40
2018-03-23T15:39:15.097Z,40
2018-03-23T15:40:24.918Z,40
2018-03-23T15:41:34.716Z,40
2018-03-23T15:42:44.795Z,40
2018-03-23T15:43:54.685Z,40
2018-03-23T15:45:04.500Z,40
2018-03-23T15:46:13.770Z,35
2018-03-23T15:47:23.844Z,35
2018-03-23T15:48:33.688Z,35
2018-03-23T15:49:43.815Z,35
2018-03-23T15:50:53.906Z,30
2018-03-23T15:52:04.003Z,30
2018-03-23T15:53:13.822Z,30
2018-03-23T15:54:23.636Z,30
2018-03-23T15:55:33.722Z,30
2018-03-23T15:56:43.250Z,30
2018-03-23T15:57:52.784Z,30
2018-03-23T15:59:02.861Z,25
2018-03-23T16:00:12.950Z,25
2018-03-23T16:01:22.586Z,25
2018-03-23T16:02:32.398Z,25
2018-03-23T16:03:42.200Z,25
2018-03-23T16:04:52.742Z,25
2018-03-23T16:06:02.828Z,20
2018-03-23T16:07:12.686Z,20
2018-03-23T16:08:22.259Z,20
2018-03-23T16:09:31.828Z,15
2018-03-23T16:10:41.931Z,15
2018-03-23T16:11:51.486Z,15
2018-03-23T16:13:01.547Z,15
2018-03-23T16:14:11.642Z,20
2018-03-23T16:15:21.816Z,20
2018-03-23T16:16:31.363Z,15
2018-03-23T16:17:41.198Z,15
2018-03-23T16:18:51.329Z,15
2018-03-23T16:20:01.181Z,15
2018-03-23T16:21:11.329Z,10
2018-03-23T16:22:21.155Z,10
2018-03-23T16:23:30.954Z,10
2018-03-23T16:24:40.857Z,10
2018-03-23T16:25:50.953Z,10
2018-03-23T16:27:00.758Z,10
2018-03-23T16:28:10.576Z,10
2018-03-23T16:29:20.383Z,5
2018-03-23T16:30:29.934Z,5
2018-03-23T16:31:39.766Z,5
2018-03-23T16:32:49.844Z,5
2018-03-23T16:33:59.912Z,5
2018-03-23T16:35:09.717Z,5
2018-03-23T16:36:19.877Z,5
2018-03-23T16:37:30.208Z,5
2018-03-23T16:38:40.297Z,5
2018-03-23T16:39:49.831Z,0
2018-03-23T16:40:59.652Z,0
2018-03-23T16:42:09.517Z,0
2018-03-23T16:43:19.430Z,0
2018-03-23T16:44:29.285Z,0
2018-03-23T16:45:39.122Z,0
2018-03-23T16:46:49.231Z,0
2018-03-23T16:47:59.188Z,0
2018-03-23T16:49:08.757Z,0
2018-03-23T16:50:18.912Z,0
2018-03-23T16:51:29.260Z,0
2018-03-23T16:52:39.584Z,0
2018-03-23T16:53:49.415Z,0
2018-03-23T16:54:59.515Z,0
2018-03-23T16:56:09.670Z,0
2018-03-23T16:57:19.224Z,0
2018-03-23T16:58:29.082Z,0
2018-03-23T16:59:38.863Z,0
2018-03-23T17:00:49.025Z,0
2018-03-23T17:01:59.304Z,0
2018-03-23T17:03:09.478Z,0
2018-03-23T17:04:19.578Z,0
2018-03-23T17:05:29.443Z,0
2018-03-23T17:06:38.730Z,0
2018-03-23T17:07:48.618Z,0
2018-03-23T17:08:58.745Z,0
2018-03-23T17:10:08.567Z,0
2018-03-23T17:11:18.700Z,0
2018-03-23T17:12:28.287Z,0